MMCB

General Mariano Matamoros Airport

Airport
ICAO code
MMCB
IATA Code
CVJ
Summary
ICAO Region
CARSAM
ICAO Territory
Location

Eterna Primavera, Morelos

Serving
Cuernavaca
Elevation
4277 ft
Coordinates
18° 50' 5" N , 99° 15' 41" W
KCC
Metar
MMCB 251340Z 00000KT 7SM FEW250 24/14 A3011 RMK 8/004 HZY

General Mariano Matamoros Airport, also known as Cuernavaca Airport, is an airport located in Cuernavaca, Morelos, Mexico, near Mexico City.

Climatology

Tropical Savannah climate (Köppen climate classification Aw)

Runways

Designator Length Width Surface Rops
2/20 2877 45 ASP No/No

Airport map

Aerial View

SKYbrary Partners:

Safety knowledge contributed by: